Time;durP1;ratioP1;P1;durP2;ratioP2;P2;SDS_P1;SDS_P2;PMS_P1;PMS_P2;Temp;Humidity;BMP_temperature;BMP_pressure;BME280_temperature;BME280_humidity;BME280_pressure;Samples;Min_cycle;Max_cycle;Signal;HPM_P1;HPM_P2
2021/09/20 00:01:14;;;;;;;6.88;4.40;;;13.20;99.90;;;;;;4939513;29;20035;-72
2021/09/20 00:03:40;;;;;;;5.82;3.72;;;13.20;99.90;;;;;;4956634;28;20238;-72
2021/09/20 00:06:06;;;;;;;5.63;3.50;;;13.10;99.90;;;;;;4956292;28;20039;-72
2021/09/20 00:08:33;;;;;;;6.07;4.13;;;13.10;99.90;;;;;;4956619;28;20038;-73
2021/09/20 00:10:59;;;;;;;5.85;3.97;;;13.00;99.90;;;;;;4959445;28;20043;-70
2021/09/20 00:13:25;;;;;;;6.25;3.75;;;13.00;99.90;;;;;;4956839;28;20042;-72
2021/09/20 00:15:51;;;;;;;5.88;4.22;;;13.00;99.90;;;;;;4955247;28;20040;-72
2021/09/20 00:18:17;;;;;;;6.43;4.25;;;13.00;99.90;;;;;;4955360;28;20050;-71
2021/09/20 00:20:44;;;;;;;6.22;3.83;;;12.90;99.90;;;;;;4954579;28;20031;-72
2021/09/20 00:23:10;;;;;;;5.88;3.78;;;12.90;99.90;;;;;;4959788;28;20027;-72
2021/09/20 00:25:36;;;;;;;5.45;3.42;;;12.90;99.90;;;;;;4957528;28;20405;-72
2021/09/20 00:28:02;;;;;;;7.50;4.15;;;12.90;99.90;;;;;;4954704;28;20477;-71
2021/09/20 00:30:29;;;;;;;6.18;3.67;;;12.90;99.90;;;;;;4955027;28;20031;-72
2021/09/20 00:32:55;;;;;;;6.07;3.60;;;13.00;99.90;;;;;;4954413;28;20054;-72
2021/09/20 00:35:21;;;;;;;6.10;4.13;;;13.00;99.90;;;;;;4954546;29;20043;-71
2021/09/20 00:37:48;;;;;;;5.88;4.15;;;13.00;99.90;;;;;;4954768;28;20058;-72
2021/09/20 00:40:14;;;;;;;5.53;4.05;;;12.90;99.90;;;;;;4937534;29;20043;-72
2021/09/20 00:42:41;;;;;;;7.32;3.85;;;12.90;99.90;;;;;;4954061;28;20453;-72
2021/09/20 00:45:08;;;;;;;6.95;4.47;;;12.90;99.90;;;;;;4954204;29;20054;-72
2021/09/20 00:47:34;;;;;;;4.70;3.30;;;12.90;99.90;;;;;;4953931;28;20046;-72
2021/09/20 00:50:00;;;;;;;7.65;4.32;;;12.80;99.90;;;;;;4937436;29;20401;-73
2021/09/20 00:52:27;;;;;;;5.53;3.80;;;12.80;99.90;;;;;;4954507;28;20032;-73
2021/09/20 00:54:53;;;;;;;5.45;3.63;;;12.80;99.90;;;;;;4953791;28;20058;-72
2021/09/20 00:57:19;;;;;;;7.88;4.80;;;12.80;99.90;;;;;;4954903;28;20027;-72
2021/09/20 00:59:46;;;;;;;6.20;3.70;;;12.80;99.90;;;;;;4954314;28;20043;-72
2021/09/20 01:02:12;;;;;;;4.72;3.58;;;12.80;99.90;;;;;;4954348;28;20031;-72
2021/09/20 01:04:39;;;;;;;6.05;4.15;;;12.90;99.90;;;;;;4953801;28;20028;-72
2021/09/20 01:07:05;;;;;;;5.57;3.92;;;12.80;99.90;;;;;;4954416;28;20358;-71
2021/09/20 01:09:32;;;;;;;7.60;3.90;;;12.80;99.90;;;;;;4953876;28;20035;-71
2021/09/20 01:11:58;;;;;;;6.50;4.25;;;12.70;99.90;;;;;;4954204;29;20572;-71
2021/09/20 01:14:25;;;;;;;4.95;3.60;;;12.70;99.90;;;;;;4953969;28;20467;-72
2021/09/20 01:16:51;;;;;;;5.80;3.95;;;12.70;99.90;;;;;;4936986;29;20035;-72
2021/09/20 01:19:17;;;;;;;8.10;4.35;;;12.70;99.90;;;;;;4953339;28;20047;-72
2021/09/20 01:21:43;;;;;;;7.68;4.50;;;12.70;99.90;;;;;;4953857;28;20046;-72
2021/09/20 01:24:10;;;;;;;5.53;3.90;;;12.70;99.90;;;;;;4953896;29;20031;-72
2021/09/20 01:26:36;;;;;;;5.43;4.05;;;12.70;99.90;;;;;;4953867;28;20043;-72
2021/09/20 01:29:06;;;;;;;6.47;4.13;;;12.70;99.90;;;;;;4953710;28;20055;-72
2021/09/20 01:31:32;;;;;;;6.68;4.85;;;12.80;99.90;;;;;;4953508;28;20042;-72
2021/09/20 01:33:59;;;;;;;7.78;4.47;;;12.80;99.90;;;;;;4954000;28;20047;-72
2021/09/20 01:36:25;;;;;;;6.82;4.53;;;12.80;99.90;;;;;;4953468;28;20437;-72
2021/09/20 01:38:51;;;;;;;6.88;4.43;;;12.80;99.90;;;;;;4954033;28;20042;-72
2021/09/20 01:41:17;;;;;;;6.45;4.50;;;12.80;99.90;;;;;;4953966;28;20104;-72
2021/09/20 01:43:44;;;;;;;6.38;4.63;;;12.80;99.90;;;;;;4952202;28;20105;-69
2021/09/20 01:46:10;;;;;;;7.10;4.70;;;12.70;99.90;;;;;;4953901;28;20465;-72
2021/09/20 01:48:36;;;;;;;7.18;4.30;;;12.70;99.90;;;;;;4953462;28;20039;-73
2021/09/20 01:51:02;;;;;;;8.48;4.55;;;12.70;99.90;;;;;;4953876;28;20493;-73
2021/09/20 01:53:29;;;;;;;7.68;4.35;;;12.70;99.90;;;;;;4953627;28;20027;-72
2021/09/20 01:55:55;;;;;;;5.00;3.78;;;12.70;99.90;;;;;;4954212;28;20385;-72
2021/09/20 01:58:21;;;;;;;6.70;4.18;;;12.70;99.90;;;;;;4954071;28;20035;-72
2021/09/20 02:00:48;;;;;;;6.00;4.00;;;12.70;99.90;;;;;;4953964;28;20114;-72
2021/09/20 02:03:14;;;;;;;7.80;3.97;;;12.70;99.90;;;;;;4953928;28;20027;-72
2021/09/20 02:05:41;;;;;;;8.18;4.40;;;12.70;99.90;;;;;;4954422;28;20362;-72
2021/09/20 02:08:07;;;;;;;7.32;5.03;;;12.70;99.90;;;;;;4956641;28;20397;-72
2021/09/20 02:10:34;;;;;;;5.63;3.83;;;12.70;99.90;;;;;;4957188;28;20027;-72
2021/09/20 02:13:00;;;;;;;6.18;4.30;;;12.70;99.90;;;;;;4957707;28;20035;-72
2021/09/20 02:15:26;;;;;;;5.85;4.20;;;12.60;99.90;;;;;;4956469;28;20047;-72
2021/09/20 02:17:52;;;;;;;6.28;4.30;;;12.60;99.90;;;;;;4940155;29;20054;-72
2021/09/20 02:20:19;;;;;;;7.25;4.60;;;12.60;99.90;;;;;;4957112;28;20047;-71
2021/09/20 02:22:45;;;;;;;7.15;5.25;;;12.60;99.90;;;;;;4955827;28;20039;-72
2021/09/20 02:25:12;;;;;;;5.95;4.70;;;12.70;99.90;;;;;;4957263;28;20466;-72
2021/09/20 02:27:39;;;;;;;6.97;4.30;;;12.70;99.90;;;;;;4956248;28;20042;-72
2021/09/20 02:30:06;;;;;;;6.13;4.00;;;12.70;99.90;;;;;;4957033;28;20035;-72
2021/09/20 02:32:34;;;;;;;8.57;5.22;;;12.70;99.90;;;;;;4956778;28;20031;-72
2021/09/20 02:35:00;;;;;;;8.40;5.78;;;12.60;99.90;;;;;;4956348;28;20043;-72
2021/09/20 02:37:27;;;;;;;7.65;4.72;;;12.60;99.90;;;;;;4956448;28;20039;-73
2021/09/20 02:39:53;;;;;;;6.15;4.20;;;12.60;99.90;;;;;;4957206;28;20152;-71
2021/09/20 02:42:19;;;;;;;7.30;4.25;;;12.60;99.90;;;;;;4956547;28;20043;-71
2021/09/20 02:44:47;;;;;;;6.15;4.32;;;12.60;99.90;;;;;;4956740;29;20043;-71
2021/09/20 02:47:14;;;;;;;6.87;4.93;;;12.60;99.90;;;;;;4956739;28;20062;-70
2021/09/20 02:49:41;;;;;;;6.50;4.75;;;12.70;99.90;;;;;;4956055;28;20035;-71
2021/09/20 02:52:07;;;;;;;7.80;4.13;;;12.70;99.90;;;;;;4957039;28;20047;-70
2021/09/20 02:54:33;;;;;;;8.05;4.70;;;12.70;99.90;;;;;;4956064;28;20047;-71
2021/09/20 02:56:59;;;;;;;6.03;4.13;;;12.70;99.90;;;;;;4956950;28;20035;-71
2021/09/20 02:59:25;;;;;;;5.68;4.35;;;12.70;99.90;;;;;;4956459;28;20412;-71
2021/09/20 03:01:52;;;;;;;6.53;4.57;;;12.70;99.90;;;;;;4956819;28;20040;-71
2021/09/20 03:04:18;;;;;;;7.60;5.15;;;12.70;99.90;;;;;;4955975;28;20039;-71
2021/09/20 03:06:44;;;;;;;6.57;4.25;;;12.70;99.90;;;;;;4955695;28;20043;-72
2021/09/20 03:09:10;;;;;;;6.80;5.25;;;12.70;99.90;;;;;;4956386;28;20039;-71
2021/09/20 03:11:36;;;;;;;6.55;4.57;;;12.70;99.90;;;;;;4955527;28;20043;-71
2021/09/20 03:14:03;;;;;;;7.90;4.78;;;12.70;99.90;;;;;;4956477;28;20043;-72
2021/09/20 03:16:29;;;;;;;7.13;4.68;;;12.70;99.90;;;;;;4955621;28;20027;-71
2021/09/20 03:18:55;;;;;;;7.32;4.55;;;12.60;99.90;;;;;;4955471;28;20043;-71
2021/09/20 03:21:24;;;;;;;6.85;4.72;;;12.60;99.90;;;;;;4956315;28;20036;-71
2021/09/20 03:23:53;;;;;;;7.03;4.72;;;12.50;99.90;;;;;;4955796;28;20080;-71
2021/09/20 03:26:19;;;;;;;5.65;3.95;;;12.60;99.90;;;;;;4955960;28;20405;-72
2021/09/20 03:28:45;;;;;;;6.78;4.25;;;12.60;99.90;;;;;;4955608;28;20036;-71
2021/09/20 03:31:12;;;;;;;7.55;5.10;;;12.50;99.90;;;;;;4956056;28;20042;-71
2021/09/20 03:33:38;;;;;;;6.53;4.65;;;12.60;99.90;;;;;;4955742;28;20127;-71
2021/09/20 03:36:04;;;;;;;7.53;5.22;;;12.50;99.90;;;;;;4956058;28;20354;-72
2021/09/20 03:38:31;;;;;;;7.00;5.10;;;12.60;99.90;;;;;;4956084;28;20047;-72
2021/09/20 03:40:57;;;;;;;6.63;4.72;;;12.70;99.90;;;;;;4959882;28;20035;-72
2021/09/20 03:43:23;;;;;;;7.93;4.95;;;12.70;99.90;;;;;;4958776;28;20481;-71
2021/09/20 03:45:49;;;;;;;6.70;4.75;;;12.80;99.90;;;;;;4956726;28;20042;-71
2021/09/20 03:48:16;;;;;;;7.82;4.45;;;12.80;99.90;;;;;;4955889;28;20035;-71
2021/09/20 03:50:42;;;;;;;7.10;4.47;;;12.70;99.90;;;;;;4955592;28;20078;-71
2021/09/20 03:53:08;;;;;;;7.03;4.65;;;12.70;99.90;;;;;;4955560;28;20054;-72
2021/09/20 03:55:35;;;;;;;8.77;5.20;;;12.70;99.90;;;;;;4954793;28;20413;-72
2021/09/20 03:58:01;;;;;;;10.32;4.78;;;12.70;99.90;;;;;;4955514;28;20473;-72
2021/09/20 04:00:27;;;;;;;7.25;4.97;;;12.70;99.90;;;;;;4954677;28;20038;-71
2021/09/20 04:02:53;;;;;;;6.10;4.32;;;12.80;99.90;;;;;;4955981;28;20035;-71
2021/09/20 04:05:20;;;;;;;9.18;5.20;;;12.70;99.90;;;;;;4955680;29;20374;-71
2021/09/20 04:07:46;;;;;;;7.63;4.63;;;12.80;99.90;;;;;;4954632;28;20043;-71
2021/09/20 04:10:13;;;;;;;6.80;4.78;;;12.80;99.90;;;;;;4955409;28;20405;-71
2021/09/20 04:12:39;;;;;;;6.93;5.15;;;12.70;99.90;;;;;;4954734;28;20033;-71
2021/09/20 04:15:06;;;;;;;11.63;5.95;;;12.70;99.90;;;;;;4955435;28;20046;-71
2021/09/20 04:17:32;;;;;;;6.88;4.82;;;12.60;99.90;;;;;;4955035;28;20038;-71
2021/09/20 04:19:58;;;;;;;6.25;4.55;;;12.60;99.90;;;;;;4955317;28;20043;-71
2021/09/20 04:22:24;;;;;;;7.72;4.85;;;12.50;99.90;;;;;;4955054;28;20028;-71
2021/09/20 04:24:51;;;;;;;6.50;4.63;;;12.50;99.90;;;;;;4954613;28;20035;-71
2021/09/20 04:27:17;;;;;;;8.38;5.82;;;12.50;99.90;;;;;;4968931;28;20042;-72
2021/09/20 04:29:43;;;;;;;6.68;5.25;;;12.60;99.90;;;;;;4952598;28;20039;-72
2021/09/20 04:32:09;;;;;;;8.95;4.90;;;12.70;99.90;;;;;;4954903;28;20046;-71
2021/09/20 04:34:36;;;;;;;8.35;5.00;;;12.70;99.90;;;;;;4966038;28;20042;-71
2021/09/20 04:37:02;;;;;;;8.02;5.43;;;12.70;99.90;;;;;;4957467;28;20035;-71
2021/09/20 04:39:28;;;;;;;7.88;4.72;;;12.70;99.90;;;;;;4956421;28;20028;-71
2021/09/20 04:41:54;;;;;;;7.25;5.07;;;12.70;99.90;;;;;;4955336;28;20043;-71
2021/09/20 04:44:21;;;;;;;6.60;4.65;;;12.70;99.90;;;;;;4954822;28;20027;-71
2021/09/20 04:46:47;;;;;;;6.68;5.10;;;12.70;99.90;;;;;;4953486;29;20042;-71
2021/09/20 04:49:13;;;;;;;8.20;5.28;;;12.70;99.90;;;;;;4954693;28;20046;-71
2021/09/20 04:51:39;;;;;;;6.60;4.88;;;12.70;99.90;;;;;;4954589;28;20496;-71
2021/09/20 04:54:06;;;;;;;6.18;4.47;;;12.70;99.90;;;;;;4954559;28;20409;-71
2021/09/20 04:56:32;;;;;;;6.65;4.20;;;12.70;99.90;;;;;;4954229;28;20031;-72
2021/09/20 04:58:58;;;;;;;9.43;5.75;;;12.70;99.90;;;;;;4954592;28;20362;-72
2021/09/20 05:01:25;;;;;;;8.18;5.75;;;12.70;99.90;;;;;;4954048;28;20385;-71
2021/09/20 05:03:51;;;;;;;7.43;4.25;;;12.70;99.90;;;;;;4954119;28;20050;-70
2021/09/20 05:06:17;;;;;;;6.93;5.20;;;12.70;99.90;;;;;;4954493;28;20051;-71
2021/09/20 05:08:43;;;;;;;6.10;4.55;;;12.70;99.90;;;;;;4953909;28;20057;-72
2021/09/20 05:11:10;;;;;;;7.68;4.10;;;12.70;99.90;;;;;;4954525;28;20039;-71
2021/09/20 05:13:36;;;;;;;7.78;5.40;;;12.80;99.90;;;;;;4954284;28;20675;-72
2021/09/20 05:16:02;;;;;;;7.63;5.43;;;12.80;99.90;;;;;;4959879;28;20027;-71
2021/09/20 05:18:28;;;;;;;6.97;5.03;;;12.80;99.90;;;;;;4959032;28;20039;-72
2021/09/20 05:20:55;;;;;;;6.40;4.30;;;12.80;99.90;;;;;;4953930;28;20039;-71
2021/09/20 05:23:21;;;;;;;8.32;5.20;;;12.80;99.90;;;;;;4962097;28;20023;-71
2021/09/20 05:25:47;;;;;;;7.55;5.45;;;12.80;99.90;;;;;;4969987;28;20027;-71
2021/09/20 05:28:14;;;;;;;7.80;5.03;;;12.80;99.90;;;;;;4971988;28;20035;-72
2021/09/20 05:30:40;;;;;;;8.57;5.45;;;12.80;99.90;;;;;;4968692;28;20038;-72
2021/09/20 05:33:06;;;;;;;6.95;4.88;;;12.80;99.90;;;;;;4954306;28;20039;-71
2021/09/20 05:35:33;;;;;;;6.10;4.38;;;12.80;99.90;;;;;;4953620;29;20043;-72
2021/09/20 05:37:59;;;;;;;6.22;4.72;;;12.80;99.90;;;;;;4954576;28;20035;-71
2021/09/20 05:40:25;;;;;;;7.50;4.88;;;12.80;99.90;;;;;;4956030;28;20407;-72
2021/09/20 05:42:57;;;;;;;6.18;4.30;;;12.80;99.90;;;;;;4960922;28;20031;-71
2021/09/20 05:45:24;;;;;;;7.60;4.88;;;12.80;99.90;;;;;;4958775;28;20043;-72
2021/09/20 05:47:51;;;;;;;6.32;4.70;;;12.80;99.90;;;;;;4958190;28;20039;-71
2021/09/20 05:50:19;;;;;;;7.82;4.80;;;12.80;99.90;;;;;;4960461;28;20035;-70
2021/09/20 05:52:46;;;;;;;7.07;5.07;;;12.80;99.90;;;;;;4958570;28;20044;-72
2021/09/20 05:55:13;;;;;;;7.78;5.35;;;12.80;99.90;;;;;;4960213;28;20408;-72
2021/09/20 05:57:40;;;;;;;8.02;5.22;;;12.80;99.90;;;;;;4959889;28;20035;-72
2021/09/20 06:00:07;;;;;;;6.63;4.72;;;12.80;99.90;;;;;;4960025;28;20039;-72
2021/09/20 06:02:37;;;;;;;8.13;5.43;;;12.80;99.90;;;;;;4960261;28;20469;-72
2021/09/20 06:05:04;;;;;;;9.18;5.70;;;12.80;99.90;;;;;;4960752;28;20031;-71
2021/09/20 06:07:30;;;;;;;7.18;5.22;;;12.90;99.90;;;;;;4959973;28;20027;-71
2021/09/20 06:09:57;;;;;;;7.25;5.25;;;12.80;99.90;;;;;;4959289;28;20378;-71
2021/09/20 06:12:23;;;;;;;7.13;5.00;;;12.90;99.90;;;;;;4960296;28;20110;-72
2021/09/20 06:14:49;;;;;;;7.68;4.97;;;12.90;99.90;;;;;;4959774;28;20488;-71
2021/09/20 06:17:15;;;;;;;6.50;4.38;;;13.00;99.90;;;;;;4968129;28;20465;-71
2021/09/20 06:19:42;;;;;;;7.68;5.03;;;13.00;99.90;;;;;;4961603;28;20054;-71
2021/09/20 06:22:08;;;;;;;7.10;4.90;;;12.90;99.90;;;;;;4959993;28;20054;-72
2021/09/20 06:24:34;;;;;;;8.93;5.75;;;12.90;99.90;;;;;;4960115;28;20035;-71
2021/09/20 06:27:00;;;;;;;10.07;4.85;;;12.90;99.90;;;;;;4960295;28;20400;-71
2021/09/20 06:29:27;;;;;;;8.25;5.43;;;12.90;99.90;;;;;;4959886;28;20035;-71
2021/09/20 06:31:53;;;;;;;6.55;4.47;;;12.90;99.90;;;;;;4960037;28;20035;-71
2021/09/20 06:34:20;;;;;;;9.38;5.47;;;13.00;99.90;;;;;;4960763;28;20128;-72
2021/09/20 06:36:46;;;;;;;6.72;5.13;;;13.00;99.90;;;;;;4943391;29;20366;-71
2021/09/20 06:39:12;;;;;;;9.23;5.18;;;13.00;99.90;;;;;;4960504;28;20042;-77
2021/09/20 06:41:38;;;;;;;7.10;4.80;;;13.00;99.90;;;;;;4960294;28;20034;-72
2021/09/20 06:44:05;;;;;;;8.90;4.82;;;13.00;99.90;;;;;;4942956;29;20035;-73
2021/09/20 06:46:34;;;;;;;6.80;4.22;;;13.00;99.90;;;;;;4958504;28;20385;-73
2021/09/20 06:49:01;;;;;;;6.72;4.68;;;13.00;99.90;;;;;;4966115;28;20464;-73
2021/09/20 06:51:27;;;;;;;6.88;4.82;;;13.10;99.90;;;;;;4969395;28;20528;-72
2021/09/20 06:53:55;;;;;;;8.27;5.05;;;13.10;99.90;;;;;;4959591;28;20054;-73
2021/09/20 06:56:22;;;;;;;6.72;4.88;;;13.20;99.90;;;;;;4960460;28;20504;-73
2021/09/20 06:58:49;;;;;;;7.93;4.90;;;13.20;99.90;;;;;;4957890;28;20432;-74
2021/09/20 07:01:16;;;;;;;8.68;5.90;;;13.20;99.90;;;;;;4957749;28;20035;-73
2021/09/20 07:03:42;;;;;;;9.05;5.13;;;13.30;99.90;;;;;;4957144;28;20035;-73
2021/09/20 07:06:09;;;;;;;8.82;6.05;;;13.30;99.90;;;;;;4957068;28;20070;-74
2021/09/20 07:08:36;;;;;;;6.68;5.18;;;13.30;99.90;;;;;;4956712;28;20034;-74
2021/09/20 07:11:02;;;;;;;8.05;5.35;;;13.40;99.90;;;;;;4957116;28;20035;-73
2021/09/20 07:13:28;;;;;;;7.20;4.90;;;13.40;99.90;;;;;;4957105;28;20039;-73
2021/09/20 07:15:54;;;;;;;8.68;4.97;;;13.50;99.90;;;;;;4957243;28;20027;-73
2021/09/20 07:18:21;;;;;;;7.07;4.88;;;13.50;99.90;;;;;;4957244;28;20413;-72
2021/09/20 07:20:47;;;;;;;8.40;5.22;;;13.50;99.90;;;;;;4954822;29;20496;-73
2021/09/20 07:23:14;;;;;;;6.80;4.93;;;13.60;99.90;;;;;;4957532;28;20042;-73
2021/09/20 07:25:40;;;;;;;7.25;5.82;;;13.50;99.90;;;;;;4971467;28;20030;-78
2021/09/20 07:28:07;;;;;;;8.00;5.30;;;13.60;99.90;;;;;;4976015;28;20030;-80
2021/09/20 07:30:34;;;;;;;11.55;4.75;;;13.60;99.90;;;;;;4976431;28;20401;-80
2021/09/20 07:33:00;;;;;;;6.35;4.72;;;13.50;99.90;;;;;;4976676;28;20499;-79
2021/09/20 07:35:26;;;;;;;7.25;5.18;;;13.60;99.90;;;;;;4977271;28;20035;-78
2021/09/20 07:37:55;;;;;;;6.85;5.20;;;13.70;99.90;;;;;;4975901;28;20031;-77
2021/09/20 07:40:25;;;;;;;7.60;5.68;;;13.70;99.90;;;;;;4970862;28;20039;-78
2021/09/20 07:42:53;;;;;;;5.75;4.43;;;13.70;99.90;;;;;;4969589;28;20039;-77
2021/09/20 07:45:20;;;;;;;8.00;5.38;;;13.80;99.90;;;;;;4962058;28;20042;-78
2021/09/20 07:47:46;;;;;;;7.43;4.60;;;13.80;99.90;;;;;;4958152;28;20031;-77
2021/09/20 07:50:15;;;;;;;7.85;5.32;;;13.90;99.90;;;;;;4940982;28;20035;-77
2021/09/20 07:52:42;;;;;;;7.90;6.00;;;13.90;99.90;;;;;;4958882;28;20035;-77
2021/09/20 07:55:09;;;;;;;6.88;4.90;;;14.00;99.90;;;;;;4958862;28;20047;-76
2021/09/20 07:57:35;;;;;;;8.60;5.15;;;14.00;99.90;;;;;;4958631;28;20384;-76
2021/09/20 08:00:04;;;;;;;8.68;5.90;;;13.90;99.90;;;;;;4959510;28;20040;-76
2021/09/20 08:02:31;;;;;;;8.27;6.63;;;14.00;99.90;;;;;;4962107;28;20055;-77
2021/09/20 08:04:57;;;;;;;6.40;4.82;;;14.10;99.90;;;;;;4963135;28;20031;-76
2021/09/20 08:07:23;;;;;;;7.50;5.45;;;14.10;99.90;;;;;;4966275;28;20397;-74
2021/09/20 08:09:49;;;;;;;5.75;4.30;;;14.10;99.90;;;;;;4963698;28;20046;-78
2021/09/20 08:12:15;;;;;;;7.00;4.88;;;14.20;99.90;;;;;;4959274;28;20047;-75
2021/09/20 08:14:42;;;;;;;5.45;4.47;;;14.40;99.90;;;;;;4967196;28;20026;-73
2021/09/20 08:17:09;;;;;;;6.95;4.95;;;14.50;99.90;;;;;;4969860;28;20019;-71
2021/09/20 08:19:36;;;;;;;7.65;4.60;;;14.70;99.90;;;;;;4969128;28;20039;-72
2021/09/20 08:22:02;;;;;;;7.05;4.93;;;14.70;99.90;;;;;;4969702;28;20023;-73
2021/09/20 08:24:29;;;;;;;7.03;4.80;;;14.90;99.90;;;;;;4968919;28;20023;-73
2021/09/20 08:26:55;;;;;;;6.65;4.47;;;15.00;99.90;;;;;;4970995;28;20392;-72
2021/09/20 08:29:22;;;;;;;7.10;4.28;;;14.90;99.90;;;;;;4972583;28;20035;-72
2021/09/20 08:31:49;;;;;;;6.60;4.78;;;14.90;99.90;;;;;;4970364;28;20023;-73
2021/09/20 08:34:16;;;;;;;10.55;5.20;;;15.00;99.90;;;;;;4972739;28;20039;-74
2021/09/20 08:36:42;;;;;;;5.85;4.20;;;15.10;99.90;;;;;;4970481;28;20038;-74
2021/09/20 08:39:09;;;;;;;8.25;5.18;;;15.20;99.90;;;;;;4969858;28;20031;-74
2021/09/20 08:41:39;;;;;;;6.60;4.15;;;15.10;98.60;;;;;;4957044;28;20499;-73
2021/09/20 08:44:06;;;;;;;7.93;4.68;;;15.10;99.70;;;;;;4965153;28;20038;-73
2021/09/20 08:46:35;;;;;;;10.80;5.82;;;15.30;99.00;;;;;;4956361;28;20046;-74
2021/09/20 08:49:01;;;;;;;6.15;4.95;;;15.40;98.50;;;;;;4973861;28;20388;-74
2021/09/20 08:51:27;;;;;;;9.57;4.63;;;15.40;98.10;;;;;;4973448;28;20042;-74
2021/09/20 08:53:54;;;;;;;9.45;6.30;;;15.40;98.20;;;;;;4956331;28;20051;-74
2021/09/20 08:56:21;;;;;;;8.88;4.70;;;15.30;98.40;;;;;;4956401;28;20031;-73
2021/09/20 08:58:47;;;;;;;7.10;5.00;;;15.20;97.60;;;;;;4969946;28;20457;-74
2021/09/20 09:01:13;;;;;;;7.13;4.45;;;15.10;97.70;;;;;;4974077;28;20033;-75
2021/09/20 09:03:39;;;;;;;6.93;4.45;;;15.00;97.80;;;;;;4976003;28;20111;-73
2021/09/20 09:06:06;;;;;;;8.25;5.22;;;15.10;97.60;;;;;;4979421;28;20057;-76
2021/09/20 09:08:38;;;;;;;5.82;4.57;;;15.30;97.50;;;;;;4979158;28;20031;-74
2021/09/20 09:11:14;;;;;;;6.70;4.65;;;15.30;96.90;;;;;;4971783;28;20035;-73
2021/09/20 09:13:43;;;;;;;7.22;5.03;;;15.30;96.40;;;;;;4966619;28;20027;-74
2021/09/20 09:16:19;;;;;;;7.10;5.13;;;15.20;95.60;;;;;;4966186;28;20032;-75
2021/09/20 09:19:04;;;;;;;6.63;4.80;;;15.20;95.70;;;;;;4952653;28;20040;-73
2021/09/20 09:21:42;;;;;;;9.20;6.32;;;15.30;95.00;;;;;;4967073;28;20383;-73
2021/09/20 09:24:20;;;;;;;10.45;6.63;;;15.50;95.40;;;;;;4966736;28;20038;-72
2021/09/20 09:26:58;;;;;;;7.53;5.00;;;15.70;95.60;;;;;;4969045;28;20042;-71
2021/09/20 09:29:28;;;;;;;6.82;4.95;;;15.70;94.60;;;;;;4971805;28;20046;-72
2021/09/20 09:31:57;;;;;;;7.43;4.68;;;15.80;94.60;;;;;;4936364;28;20046;-72
2021/09/20 09:34:33;;;;;;;9.98;4.07;;;15.70;94.20;;;;;;4964118;28;20039;-73
2021/09/20 09:37:11;;;;;;;7.32;4.75;;;15.60;94.50;;;;;;4954213;28;20039;-74
2021/09/20 09:39:38;;;;;;;7.05;4.70;;;15.70;94.20;;;;;;4953645;28;20050;-73
2021/09/20 09:42:16;;;;;;;8.57;5.47;;;15.80;93.60;;;;;;4953882;28;20051;-74
2021/09/20 09:44:42;;;;;;;6.38;4.35;;;15.70;93.60;;;;;;4953762;28;20031;-73
2021/09/20 09:47:31;;;;;;;7.85;5.38;;;15.80;93.30;;;;;;4953995;28;20031;-74
2021/09/20 09:50:12;;;;;;;6.88;4.97;;;15.90;92.90;;;;;;4953925;28;20046;-73
2021/09/20 09:52:39;;;;;;;6.80;4.85;;;15.80;92.80;;;;;;4953779;28;20023;-74
2021/09/20 09:55:06;;;;;;;6.38;5.05;;;16.00;92.20;;;;;;4961352;28;20051;-74
2021/09/20 09:57:33;;;;;;;6.90;4.60;;;16.00;92.70;;;;;;4954061;28;20032;-73
2021/09/20 10:00:04;;;;;;;8.30;5.43;;;16.10;92.10;;;;;;4954028;28;20043;-74
2021/09/20 10:02:42;;;;;;;7.93;5.20;;;15.90;92.50;;;;;;4961700;28;20051;-72
2021/09/20 10:05:11;;;;;;;6.85;5.20;;;16.10;92.10;;;;;;4972892;28;20054;-72
2021/09/20 10:07:40;;;;;;;7.28;5.20;;;16.20;91.70;;;;;;4967550;28;20393;-73
2021/09/20 10:10:13;;;;;;;6.93;4.72;;;16.20;91.20;;;;;;4957116;28;20034;-72
2021/09/20 10:12:42;;;;;;;4.93;3.75;;;16.00;91.50;;;;;;4960102;28;20047;-72
2021/09/20 10:15:11;;;;;;;5.22;4.00;;;16.30;91.50;;;;;;4953874;28;20039;-74
2021/09/20 10:17:38;;;;;;;8.35;4.95;;;16.20;90.70;;;;;;4954039;28;20047;-72
2021/09/20 10:20:13;;;;;;;6.07;4.40;;;16.30;91.20;;;;;;4936771;28;20043;-73
2021/09/20 10:22:41;;;;;;;7.82;5.18;;;16.20;89.80;;;;;;4936472;28;20032;-73
2021/09/20 10:25:10;;;;;;;6.22;4.07;;;16.30;90.00;;;;;;4953470;28;20046;-73
2021/09/20 10:27:37;;;;;;;5.60;3.88;;;16.20;90.00;;;;;;4953917;28;20043;-72
2021/09/20 10:30:14;;;;;;;7.80;4.60;;;16.70;89.70;;;;;;4957093;28;20050;-73
2021/09/20 10:32:42;;;;;;;5.78;4.30;;;16.80;88.00;;;;;;4957035;28;20035;-72
2021/09/20 10:35:36;;;;;;;8.38;4.65;;;16.80;88.20;;;;;;4957124;28;20046;-73
2021/09/20 10:38:13;;;;;;;6.47;4.53;;;16.80;87.30;;;;;;4957548;28;20036;-73
2021/09/20 10:40:40;;;;;;;7.22;4.78;;;16.90;86.70;;;;;;4956463;28;20389;-73
2021/09/20 10:43:07;;;;;;;6.25;4.57;;;16.90;85.60;;;;;;4957411;28;20039;-74
2021/09/20 10:45:35;;;;;;;7.35;4.45;;;16.70;84.50;;;;;;4956307;28;20035;-72
2021/09/20 10:48:19;;;;;;;5.75;4.03;;;16.80;85.60;;;;;;4970463;28;20023;-73
2021/09/20 10:50:51;;;;;;;5.47;4.07;;;17.20;84.20;;;;;;4952404;28;20051;-73
2021/09/20 10:53:28;;;;;;;5.82;4.18;;;17.50;82.30;;;;;;4957520;28;20039;-73
2021/09/20 10:56:04;;;;;;;5.65;4.20;;;17.30;83.80;;;;;;4962169;28;20428;-73
2021/09/20 10:58:32;;;;;;;5.72;4.57;;;17.50;80.60;;;;;;4958535;28;20038;-72
2021/09/20 11:01:15;;;;;;;8.32;5.35;;;17.40;82.00;;;;;;4957996;28;20051;-73
2021/09/20 11:03:45;;;;;;;6.80;5.80;;;17.10;81.80;;;;;;4956605;28;20573;-72
2021/09/20 11:06:20;;;;;;;;;;;17.50;83.40;;;;;;4956811;28;20043;-71
2021/09/20 11:09:08;;;;;;;7.50;4.38;;;17.70;80.50;;;;;;4956301;28;19933;-72
2021/09/20 11:11:37;;;;;;;6.45;4.35;;;17.60;80.60;;;;;;4955683;28;20390;-73
2021/09/20 11:14:06;;;;;;;7.03;4.90;;;17.50;80.20;;;;;;4956470;28;20066;-74
2021/09/20 11:16:57;;;;;;;6.32;4.88;;;17.50;80.30;;;;;;4955990;28;20035;-73
2021/09/20 11:19:26;;;;;;;5.80;4.05;;;17.80;80.10;;;;;;4956146;28;20038;-74
2021/09/20 11:22:04;;;;;;;5.47;3.95;;;17.70;79.70;;;;;;4956957;28;20230;-73
2021/09/20 11:24:40;;;;;;;6.60;5.05;;;17.80;80.60;;;;;;4954986;28;20042;-72
2021/09/20 11:27:13;;;;;;;6.95;4.85;;;18.10;79.50;;;;;;4956772;28;20031;-72
2021/09/20 11:29:39;;;;;;;6.97;4.32;;;18.40;77.40;;;;;;4966322;28;20039;-72
2021/09/20 11:32:07;;;;;;;6.28;4.85;;;18.50;76.50;;;;;;4971776;28;20034;-72
2021/09/20 11:34:38;;;;;;;6.78;5.07;;;18.10;76.90;;;;;;4974968;28;20384;-72
2021/09/20 11:37:13;;;;;;;7.53;5.47;;;17.70;78.70;;;;;;4958071;28;20031;-73
2021/09/20 11:39:52;;;;;;;7.78;4.90;;;18.20;78.00;;;;;;4957227;28;20035;-75
2021/09/20 11:42:21;;;;;;;6.60;4.72;;;18.40;77.10;;;;;;4956417;28;20341;-74
2021/09/20 11:44:51;;;;;;;7.13;5.22;;;18.70;76.00;;;;;;4955602;28;20066;-74
2021/09/20 11:47:19;;;;;;;6.10;4.85;;;19.10;76.60;;;;;;4955985;28;20492;-74
2021/09/20 11:49:46;;;;;;;6.30;5.03;;;19.10;74.90;;;;;;4954923;28;20051;-74
2021/09/20 11:52:13;;;;;;;5.60;4.38;;;18.80;76.40;;;;;;4956092;28;20040;-73
2021/09/20 11:54:45;;;;;;;7.18;5.45;;;18.20;77.00;;;;;;4955416;28;20482;-75
2021/09/20 11:57:14;;;;;;;5.82;4.57;;;17.90;78.50;;;;;;4956023;28;20046;-73
2021/09/20 11:59:40;;;;;;;6.78;4.95;;;17.60;78.30;;;;;;4955179;28;20042;-72
2021/09/20 12:02:07;;;;;;;6.85;5.38;;;17.50;79.80;;;;;;4955662;28;20035;-72
2021/09/20 12:04:47;;;;;;;6.78;4.95;;;17.50;79.30;;;;;;4955598;28;20046;-73
2021/09/20 12:07:26;;;;;;;7.28;4.93;;;17.50;79.50;;;;;;4955361;28;20488;-72
2021/09/20 12:09:54;;;;;;;7.30;5.53;;;17.90;79.20;;;;;;4955249;28;20039;-73
2021/09/20 12:12:20;;;;;;;7.32;5.22;;;17.90;77.70;;;;;;4955375;28;20043;-72
2021/09/20 12:15:12;;;;;;;7.68;5.38;;;17.80;77.90;;;;;;4955123;28;20042;-72
2021/09/20 12:17:57;;;;;;;9.68;5.63;;;17.70;77.70;;;;;;4955349;28;20050;-72
2021/09/20 12:20:37;;;;;;;8.27;5.78;;;17.70;78.50;;;;;;4959592;28;20039;-74
2021/09/20 12:23:11;;;;;;;7.40;5.72;;;17.90;78.00;;;;;;4955627;28;20047;-73
2021/09/20 12:25:47;;;;;;;8.98;6.22;;;17.90;79.70;;;;;;4954275;29;20039;-73
2021/09/20 12:28:23;;;;;;;10.00;5.93;;;17.90;78.60;;;;;;4955033;28;20035;-73
2021/09/20 12:31:01;;;;;;;9.85;5.18;;;17.70;78.60;;;;;;4970595;28;20045;-74
2021/09/20 12:33:28;;;;;;;8.40;5.68;;;17.70;78.80;;;;;;4954828;28;20458;-73
2021/09/20 12:35:54;;;;;;;7.43;5.32;;;17.70;78.80;;;;;;4954715;28;20047;-73
2021/09/20 12:38:33;;;;;;;6.75;4.53;;;17.70;79.00;;;;;;4954525;29;20036;-73
2021/09/20 12:41:10;;;;;;;7.13;5.13;;;17.80;79.10;;;;;;4955255;28;20523;-74
2021/09/20 12:43:37;;;;;;;8.02;5.68;;;17.50;78.90;;;;;;4954284;28;20054;-72
2021/09/20 12:46:16;;;;;;;9.00;5.53;;;17.50;80.60;;;;;;4954618;28;20043;-72
2021/09/20 12:48:45;;;;;;;7.97;5.70;;;17.50;79.50;;;;;;4954432;28;20038;-72
2021/09/20 12:51:14;;;;;;;7.32;4.85;;;17.40;80.80;;;;;;4954043;28;20043;-72
2021/09/20 12:53:44;;;;;;;8.20;6.00;;;17.40;80.60;;;;;;4953945;28;20046;-71